sensor_id;sensor_type;location;lat;lon;timestamp;P1;durP1;ratioP1;P2;durP2;ratioP2
48317;SDS011;34127;47.412;9.730;2023-11-19T00:00:45;6.95;;;4.22;;
48317;SDS011;34127;47.412;9.730;2023-11-19T00:03:11;7.47;;;4.47;;
48317;SDS011;34127;47.412;9.730;2023-11-19T00:05:38;6.88;;;4.40;;
48317;SDS011;34127;47.412;9.730;2023-11-19T00:08:04;6.15;;;4.40;;
48317;SDS011;34127;47.412;9.730;2023-11-19T00:10:31;7.65;;;4.32;;
48317;SDS011;34127;47.412;9.730;2023-11-19T00:12:58;6.25;;;4.07;;
48317;SDS011;34127;47.412;9.730;2023-11-19T00:15:24;5.40;;;4.28;;
48317;SDS011;34127;47.412;9.730;2023-11-19T00:17:50;7.57;;;4.10;;
48317;SDS011;34127;47.412;9.730;2023-11-19T00:20:20;6.40;;;4.00;;
48317;SDS011;34127;47.412;9.730;2023-11-19T00:22:49;5.18;;;3.75;;
48317;SDS011;34127;47.412;9.730;2023-11-19T00:25:19;7.43;;;4.38;;
48317;SDS011;34127;47.412;9.730;2023-11-19T00:27:46;8.13;;;3.90;;
48317;SDS011;34127;47.412;9.730;2023-11-19T00:30:13;6.35;;;3.90;;
48317;SDS011;34127;47.412;9.730;2023-11-19T00:32:39;6.85;;;4.00;;
48317;SDS011;34127;47.412;9.730;2023-11-19T00:35:06;6.80;;;4.20;;
48317;SDS011;34127;47.412;9.730;2023-11-19T00:37:32;5.72;;;3.90;;
48317;SDS011;34127;47.412;9.730;2023-11-19T00:39:59;6.43;;;4.28;;
48317;SDS011;34127;47.412;9.730;2023-11-19T00:42:25;8.48;;;5.00;;
48317;SDS011;34127;47.412;9.730;2023-11-19T00:44:51;5.88;;;4.28;;
48317;SDS011;34127;47.412;9.730;2023-11-19T00:47:18;7.13;;;4.40;;
48317;SDS011;34127;47.412;9.730;2023-11-19T00:49:47;6.07;;;4.20;;
48317;SDS011;34127;47.412;9.730;2023-11-19T00:52:14;5.20;;;3.38;;
48317;SDS011;34127;47.412;9.730;2023-11-19T00:54:40;5.80;;;3.78;;
48317;SDS011;34127;47.412;9.730;2023-11-19T00:57:06;5.55;;;3.20;;
48317;SDS011;34127;47.412;9.730;2023-11-19T00:59:32;5.28;;;3.17;;
48317;SDS011;34127;47.412;9.730;2023-11-19T01:01:58;5.13;;;3.25;;
48317;SDS011;34127;47.412;9.730;2023-11-19T01:04:28;6.13;;;3.25;;
48317;SDS011;34127;47.412;9.730;2023-11-19T01:06:55;4.82;;;3.40;;
48317;SDS011;34127;47.412;9.730;2023-11-19T01:09:21;5.05;;;3.17;;
48317;SDS011;34127;47.412;9.730;2023-11-19T01:11:48;6.35;;;3.47;;
48317;SDS011;34127;47.412;9.730;2023-11-19T01:14:14;6.32;;;3.53;;
48317;SDS011;34127;47.412;9.730;2023-11-19T01:16:40;7.65;;;3.90;;
48317;SDS011;34127;47.412;9.730;2023-11-19T01:19:06;6.78;;;3.55;;
48317;SDS011;34127;47.412;9.730;2023-11-19T01:21:32;7.30;;;4.00;;
48317;SDS011;34127;47.412;9.730;2023-11-19T01:23:59;5.65;;;3.60;;
48317;SDS011;34127;47.412;9.730;2023-11-19T01:26:25;5.88;;;3.60;;
48317;SDS011;34127;47.412;9.730;2023-11-19T01:28:51;5.60;;;3.63;;
48317;SDS011;34127;47.412;9.730;2023-11-19T01:31:18;6.60;;;3.45;;
48317;SDS011;34127;47.412;9.730;2023-11-19T01:33:44;5.78;;;3.53;;
48317;SDS011;34127;47.412;9.730;2023-11-19T01:36:14;9.15;;;4.07;;
48317;SDS011;34127;47.412;9.730;2023-11-19T01:38:41;6.63;;;3.85;;
48317;SDS011;34127;47.412;9.730;2023-11-19T01:41:07;6.32;;;3.65;;
48317;SDS011;34127;47.412;9.730;2023-11-19T01:43:34;7.78;;;4.05;;
48317;SDS011;34127;47.412;9.730;2023-11-19T01:46:01;5.53;;;3.55;;
48317;SDS011;34127;47.412;9.730;2023-11-19T01:48:28;5.22;;;3.58;;
48317;SDS011;34127;47.412;9.730;2023-11-19T01:50:55;7.47;;;3.83;;
48317;SDS011;34127;47.412;9.730;2023-11-19T01:53:21;4.75;;;3.10;;
48317;SDS011;34127;47.412;9.730;2023-11-19T01:55:47;6.38;;;3.75;;
48317;SDS011;34127;47.412;9.730;2023-11-19T01:58:14;5.85;;;3.58;;
48317;SDS011;34127;47.412;9.730;2023-11-19T02:00:40;5.55;;;2.55;;
48317;SDS011;34127;47.412;9.730;2023-11-19T02:03:07;7.50;;;3.60;;
48317;SDS011;34127;47.412;9.730;2023-11-19T02:05:33;6.28;;;3.03;;
48317;SDS011;34127;47.412;9.730;2023-11-19T02:07:59;5.82;;;3.30;;
48317;SDS011;34127;47.412;9.730;2023-11-19T02:10:26;4.95;;;3.03;;
48317;SDS011;34127;47.412;9.730;2023-11-19T02:12:52;5.68;;;3.30;;
48317;SDS011;34127;47.412;9.730;2023-11-19T02:15:18;5.78;;;3.15;;
48317;SDS011;34127;47.412;9.730;2023-11-19T02:17:45;4.45;;;2.70;;
48317;SDS011;34127;47.412;9.730;2023-11-19T02:20:11;4.60;;;3.10;;
48317;SDS011;34127;47.412;9.730;2023-11-19T02:22:39;4.80;;;2.90;;
48317;SDS011;34127;47.412;9.730;2023-11-19T02:25:12;4.55;;;2.90;;
48317;SDS011;34127;47.412;9.730;2023-11-19T02:27:54;5.43;;;3.20;;
48317;SDS011;34127;47.412;9.730;2023-11-19T02:30:21;5.38;;;2.85;;
48317;SDS011;34127;47.412;9.730;2023-11-19T02:32:57;4.07;;;2.60;;
48317;SDS011;34127;47.412;9.730;2023-11-19T02:35:25;4.15;;;2.58;;
48317;SDS011;34127;47.412;9.730;2023-11-19T02:37:52;5.07;;;2.20;;
48317;SDS011;34127;47.412;9.730;2023-11-19T02:40:19;4.45;;;2.50;;
48317;SDS011;34127;47.412;9.730;2023-11-19T02:42:45;4.10;;;2.65;;
48317;SDS011;34127;47.412;9.730;2023-11-19T02:45:11;3.83;;;2.50;;
48317;SDS011;34127;47.412;9.730;2023-11-19T02:47:42;3.45;;;2.10;;
48317;SDS011;34127;47.412;9.730;2023-11-19T02:50:09;3.50;;;2.00;;
48317;SDS011;34127;47.412;9.730;2023-11-19T02:52:41;4.85;;;2.15;;
48317;SDS011;34127;47.412;9.730;2023-11-19T02:55:11;3.08;;;1.73;;
48317;SDS011;34127;47.412;9.730;2023-11-19T02:57:41;3.67;;;1.90;;
48317;SDS011;34127;47.412;9.730;2023-11-19T03:00:21;3.58;;;1.75;;
48317;SDS011;34127;47.412;9.730;2023-11-19T03:02:57;3.47;;;1.98;;
48317;SDS011;34127;47.412;9.730;2023-11-19T03:05:25;4.07;;;2.28;;
48317;SDS011;34127;47.412;9.730;2023-11-19T03:07:51;4.00;;;2.10;;
48317;SDS011;34127;47.412;9.730;2023-11-19T03:10:17;3.78;;;2.40;;
48317;SDS011;34127;47.412;9.730;2023-11-19T03:12:44;4.65;;;2.47;;
48317;SDS011;34127;47.412;9.730;2023-11-19T03:15:10;5.25;;;2.95;;
48317;SDS011;34127;47.412;9.730;2023-11-19T03:17:40;8.10;;;3.30;;
48317;SDS011;34127;47.412;9.730;2023-11-19T03:20:07;4.10;;;2.75;;
48317;SDS011;34127;47.412;9.730;2023-11-19T03:22:40;4.93;;;2.67;;
48317;SDS011;34127;47.412;9.730;2023-11-19T03:25:09;4.88;;;2.80;;
48317;SDS011;34127;47.412;9.730;2023-11-19T03:27:36;3.80;;;2.63;;
48317;SDS011;34127;47.412;9.730;2023-11-19T03:30:03;4.47;;;3.03;;
48317;SDS011;34127;47.412;9.730;2023-11-19T03:32:30;3.40;;;2.10;;
48317;SDS011;34127;47.412;9.730;2023-11-19T03:34:57;3.40;;;2.30;;
48317;SDS011;34127;47.412;9.730;2023-11-19T03:37:23;3.58;;;2.10;;
48317;SDS011;34127;47.412;9.730;2023-11-19T03:39:50;3.15;;;2.00;;
48317;SDS011;34127;47.412;9.730;2023-11-19T03:42:18;2.80;;;1.85;;
48317;SDS011;34127;47.412;9.730;2023-11-19T03:44:45;3.80;;;2.13;;
48317;SDS011;34127;47.412;9.730;2023-11-19T03:47:11;4.22;;;2.30;;
48317;SDS011;34127;47.412;9.730;2023-11-19T03:49:38;3.08;;;2.00;;
48317;SDS011;34127;47.412;9.730;2023-11-19T03:52:04;4.55;;;2.13;;
48317;SDS011;34127;47.412;9.730;2023-11-19T03:54:30;3.00;;;1.88;;
48317;SDS011;34127;47.412;9.730;2023-11-19T03:56:57;3.97;;;2.10;;
48317;SDS011;34127;47.412;9.730;2023-11-19T03:59:25;4.07;;;1.98;;
48317;SDS011;34127;47.412;9.730;2023-11-19T04:01:51;3.85;;;1.70;;
48317;SDS011;34127;47.412;9.730;2023-11-19T04:04:18;3.50;;;2.10;;
48317;SDS011;34127;47.412;9.730;2023-11-19T04:06:44;3.60;;;1.95;;
48317;SDS011;34127;47.412;9.730;2023-11-19T04:09:11;3.53;;;1.83;;
48317;SDS011;34127;47.412;9.730;2023-11-19T04:11:37;4.45;;;2.00;;
48317;SDS011;34127;47.412;9.730;2023-11-19T04:14:04;4.82;;;2.30;;
48317;SDS011;34127;47.412;9.730;2023-11-19T04:16:30;4.70;;;2.13;;
48317;SDS011;34127;47.412;9.730;2023-11-19T04:18:56;3.45;;;1.70;;
48317;SDS011;34127;47.412;9.730;2023-11-19T04:21:23;4.18;;;1.90;;
48317;SDS011;34127;47.412;9.730;2023-11-19T04:23:49;4.22;;;1.88;;
48317;SDS011;34127;47.412;9.730;2023-11-19T04:26:15;3.08;;;1.75;;
48317;SDS011;34127;47.412;9.730;2023-11-19T04:28:41;4.82;;;2.03;;
48317;SDS011;34127;47.412;9.730;2023-11-19T04:31:07;5.32;;;2.00;;
48317;SDS011;34127;47.412;9.730;2023-11-19T04:33:34;3.65;;;2.00;;
48317;SDS011;34127;47.412;9.730;2023-11-19T04:36:00;3.53;;;1.92;;
48317;SDS011;34127;47.412;9.730;2023-11-19T04:38:27;5.65;;;2.17;;
48317;SDS011;34127;47.412;9.730;2023-11-19T04:40:54;4.95;;;2.20;;
48317;SDS011;34127;47.412;9.730;2023-11-19T04:43:22;5.45;;;2.30;;
48317;SDS011;34127;47.412;9.730;2023-11-19T04:45:48;5.03;;;2.55;;
48317;SDS011;34127;47.412;9.730;2023-11-19T04:48:14;5.65;;;2.20;;
48317;SDS011;34127;47.412;9.730;2023-11-19T04:50:40;5.70;;;2.30;;
48317;SDS011;34127;47.412;9.730;2023-11-19T04:53:06;7.15;;;2.88;;
48317;SDS011;34127;47.412;9.730;2023-11-19T04:55:33;8.63;;;4.10;;
48317;SDS011;34127;47.412;9.730;2023-11-19T04:57:59;5.68;;;3.85;;
48317;SDS011;34127;47.412;9.730;2023-11-19T05:00:25;6.57;;;4.15;;
48317;SDS011;34127;47.412;9.730;2023-11-19T05:02:51;5.70;;;4.32;;
48317;SDS011;34127;47.412;9.730;2023-11-19T05:05:17;8.70;;;4.50;;
48317;SDS011;34127;47.412;9.730;2023-11-19T05:07:44;6.15;;;3.90;;
48317;SDS011;34127;47.412;9.730;2023-11-19T05:10:10;5.80;;;3.90;;
48317;SDS011;34127;47.412;9.730;2023-11-19T05:12:36;7.07;;;3.80;;
48317;SDS011;34127;47.412;9.730;2023-11-19T05:15:02;7.72;;;3.88;;
48317;SDS011;34127;47.412;9.730;2023-11-19T05:17:28;5.10;;;3.40;;
48317;SDS011;34127;47.412;9.730;2023-11-19T05:19:54;9.13;;;4.05;;
48317;SDS011;34127;47.412;9.730;2023-11-19T05:22:20;5.30;;;3.20;;
48317;SDS011;34127;47.412;9.730;2023-11-19T05:24:46;4.95;;;3.22;;
48317;SDS011;34127;47.412;9.730;2023-11-19T05:27:14;7.68;;;3.75;;
48317;SDS011;34127;47.412;9.730;2023-11-19T05:29:40;6.43;;;4.18;;
48317;SDS011;34127;47.412;9.730;2023-11-19T05:32:07;6.00;;;3.70;;
48317;SDS011;34127;47.412;9.730;2023-11-19T05:34:34;6.15;;;3.85;;
48317;SDS011;34127;47.412;9.730;2023-11-19T05:37:00;7.80;;;4.13;;
48317;SDS011;34127;47.412;9.730;2023-11-19T05:39:27;6.28;;;4.20;;
48317;SDS011;34127;47.412;9.730;2023-11-19T05:41:53;7.00;;;3.90;;
48317;SDS011;34127;47.412;9.730;2023-11-19T05:44:19;7.35;;;4.43;;
48317;SDS011;34127;47.412;9.730;2023-11-19T05:46:45;7.38;;;4.30;;
48317;SDS011;34127;47.412;9.730;2023-11-19T05:49:11;8.10;;;4.25;;
48317;SDS011;34127;47.412;9.730;2023-11-19T05:51:38;7.28;;;3.75;;
48317;SDS011;34127;47.412;9.730;2023-11-19T05:54:06;7.10;;;4.10;;
48317;SDS011;34127;47.412;9.730;2023-11-19T05:56:32;9.77;;;4.20;;
48317;SDS011;34127;47.412;9.730;2023-11-19T05:58:59;7.90;;;3.70;;
48317;SDS011;34127;47.412;9.730;2023-11-19T06:01:33;6.13;;;3.30;;
48317;SDS011;34127;47.412;9.730;2023-11-19T06:03:59;7.03;;;3.95;;
48317;SDS011;34127;47.412;9.730;2023-11-19T06:06:26;7.07;;;4.57;;
48317;SDS011;34127;47.412;9.730;2023-11-19T06:08:52;6.25;;;4.03;;
48317;SDS011;34127;47.412;9.730;2023-11-19T06:11:18;6.57;;;4.30;;
48317;SDS011;34127;47.412;9.730;2023-11-19T06:13:45;6.32;;;4.07;;
48317;SDS011;34127;47.412;9.730;2023-11-19T06:16:16;9.98;;;5.50;;
48317;SDS011;34127;47.412;9.730;2023-11-19T06:18:42;13.10;;;6.05;;
48317;SDS011;34127;47.412;9.730;2023-11-19T06:21:09;12.90;;;6.97;;
48317;SDS011;34127;47.412;9.730;2023-11-19T06:23:35;11.88;;;6.70;;
48317;SDS011;34127;47.412;9.730;2023-11-19T06:26:01;10.10;;;5.95;;
48317;SDS011;34127;47.412;9.730;2023-11-19T06:28:27;10.05;;;5.68;;
48317;SDS011;34127;47.412;9.730;2023-11-19T06:30:53;7.80;;;4.97;;
48317;SDS011;34127;47.412;9.730;2023-11-19T06:33:19;6.72;;;4.15;;
48317;SDS011;34127;47.412;9.730;2023-11-19T06:35:45;8.95;;;3.78;;
48317;SDS011;34127;47.412;9.730;2023-11-19T06:38:11;6.22;;;3.53;;
48317;SDS011;34127;47.412;9.730;2023-11-19T06:40:38;7.28;;;3.80;;
48317;SDS011;34127;47.412;9.730;2023-11-19T06:43:06;6.65;;;3.78;;
48317;SDS011;34127;47.412;9.730;2023-11-19T06:45:34;8.85;;;4.82;;
48317;SDS011;34127;47.412;9.730;2023-11-19T06:48:01;8.85;;;4.93;;
48317;SDS011;34127;47.412;9.730;2023-11-19T06:50:31;7.43;;;3.33;;
48317;SDS011;34127;47.412;9.730;2023-11-19T06:52:57;5.63;;;3.28;;
48317;SDS011;34127;47.412;9.730;2023-11-19T06:55:23;5.50;;;3.40;;
48317;SDS011;34127;47.412;9.730;2023-11-19T06:57:49;8.82;;;4.57;;
48317;SDS011;34127;47.412;9.730;2023-11-19T07:00:15;7.40;;;3.92;;
48317;SDS011;34127;47.412;9.730;2023-11-19T07:02:43;6.88;;;4.47;;
48317;SDS011;34127;47.412;9.730;2023-11-19T07:05:09;6.40;;;4.28;;
48317;SDS011;34127;47.412;9.730;2023-11-19T07:07:37;7.63;;;4.70;;
48317;SDS011;34127;47.412;9.730;2023-11-19T07:10:03;9.98;;;4.53;;
48317;SDS011;34127;47.412;9.730;2023-11-19T07:12:30;8.88;;;4.78;;
48317;SDS011;34127;47.412;9.730;2023-11-19T07:14:57;7.13;;;4.05;;
48317;SDS011;34127;47.412;9.730;2023-11-19T07:17:23;6.53;;;3.83;;
48317;SDS011;34127;47.412;9.730;2023-11-19T07:19:49;9.35;;;4.18;;
48317;SDS011;34127;47.412;9.730;2023-11-19T07:22:16;9.30;;;4.63;;
48317;SDS011;34127;47.412;9.730;2023-11-19T07:24:42;10.45;;;4.97;;
48317;SDS011;34127;47.412;9.730;2023-11-19T07:27:08;8.85;;;4.80;;
48317;SDS011;34127;47.412;9.730;2023-11-19T07:29:35;5.72;;;4.07;;
48317;SDS011;34127;47.412;9.730;2023-11-19T07:32:01;7.25;;;4.25;;
48317;SDS011;34127;47.412;9.730;2023-11-19T07:34:27;7.53;;;4.13;;
48317;SDS011;34127;47.412;9.730;2023-11-19T07:36:54;7.90;;;4.65;;
48317;SDS011;34127;47.412;9.730;2023-11-19T07:39:24;7.35;;;5.75;;
48317;SDS011;34127;47.412;9.730;2023-11-19T07:41:50;6.38;;;4.80;;
48317;SDS011;34127;47.412;9.730;2023-11-19T07:44:16;7.30;;;5.57;;
48317;SDS011;34127;47.412;9.730;2023-11-19T07:46:43;8.73;;;5.75;;
48317;SDS011;34127;47.412;9.730;2023-11-19T07:49:10;7.35;;;5.00;;
48317;SDS011;34127;47.412;9.730;2023-11-19T07:51:36;8.82;;;5.68;;
48317;SDS011;34127;47.412;9.730;2023-11-19T07:54:02;8.48;;;6.07;;
48317;SDS011;34127;47.412;9.730;2023-11-19T07:56:29;9.93;;;6.82;;
48317;SDS011;34127;47.412;9.730;2023-11-19T07:58:55;16.23;;;8.43;;
48317;SDS011;34127;47.412;9.730;2023-11-19T08:01:21;11.25;;;6.40;;
48317;SDS011;34127;47.412;9.730;2023-11-19T08:03:48;11.20;;;6.88;;
48317;SDS011;34127;47.412;9.730;2023-11-19T08:06:14;12.95;;;8.50;;
48317;SDS011;34127;47.412;9.730;2023-11-19T08:08:41;11.68;;;7.93;;
48317;SDS011;34127;47.412;9.730;2023-11-19T08:11:07;13.10;;;8.32;;
48317;SDS011;34127;47.412;9.730;2023-11-19T08:13:34;10.65;;;7.15;;
48317;SDS011;34127;47.412;9.730;2023-11-19T08:16:00;9.95;;;5.93;;
48317;SDS011;34127;47.412;9.730;2023-11-19T08:18:26;10.15;;;6.07;;
48317;SDS011;34127;47.412;9.730;2023-11-19T08:20:52;8.68;;;5.90;;
48317;SDS011;34127;47.412;9.730;2023-11-19T08:23:19;8.73;;;5.78;;
48317;SDS011;34127;47.412;9.730;2023-11-19T08:25:45;8.88;;;5.93;;
48317;SDS011;34127;47.412;9.730;2023-11-19T08:28:12;8.07;;;5.65;;
48317;SDS011;34127;47.412;9.730;2023-11-19T08:30:38;9.85;;;7.07;;
48317;SDS011;34127;47.412;9.730;2023-11-19T08:33:04;11.48;;;8.48;;
48317;SDS011;34127;47.412;9.730;2023-11-19T08:35:32;9.80;;;6.53;;
48317;SDS011;34127;47.412;9.730;2023-11-19T08:37:58;9.38;;;5.78;;
48317;SDS011;34127;47.412;9.730;2023-11-19T08:40:24;9.25;;;6.25;;
48317;SDS011;34127;47.412;9.730;2023-11-19T08:42:55;8.70;;;6.30;;
48317;SDS011;34127;47.412;9.730;2023-11-19T08:45:21;9.70;;;6.07;;
48317;SDS011;34127;47.412;9.730;2023-11-19T08:47:47;8.60;;;5.85;;
48317;SDS011;34127;47.412;9.730;2023-11-19T08:50:13;8.48;;;5.78;;
48317;SDS011;34127;47.412;9.730;2023-11-19T08:52:40;9.52;;;5.93;;
48317;SDS011;34127;47.412;9.730;2023-11-19T08:55:06;8.05;;;5.65;;
48317;SDS011;34127;47.412;9.730;2023-11-19T08:57:32;8.82;;;6.10;;
48317;SDS011;34127;47.412;9.730;2023-11-19T08:59:58;9.18;;;6.57;;
48317;SDS011;34127;47.412;9.730;2023-11-19T09:02:24;9.23;;;6.00;;
48317;SDS011;34127;47.412;9.730;2023-11-19T09:04:51;12.77;;;7.43;;
48317;SDS011;34127;47.412;9.730;2023-11-19T09:07:17;14.00;;;9.10;;
48317;SDS011;34127;47.412;9.730;2023-11-19T09:09:43;12.10;;;7.72;;
48317;SDS011;34127;47.412;9.730;2023-11-19T09:12:09;10.30;;;5.88;;
48317;SDS011;34127;47.412;9.730;2023-11-19T09:14:35;9.38;;;6.13;;
48317;SDS011;34127;47.412;9.730;2023-11-19T09:17:01;10.85;;;6.90;;
48317;SDS011;34127;47.412;9.730;2023-11-19T09:19:28;8.60;;;5.70;;
48317;SDS011;34127;47.412;9.730;2023-11-19T09:21:54;6.57;;;4.18;;
48317;SDS011;34127;47.412;9.730;2023-11-19T09:24:20;7.68;;;4.40;;
48317;SDS011;34127;47.412;9.730;2023-11-19T09:26:46;7.82;;;3.88;;
48317;SDS011;34127;47.412;9.730;2023-11-19T09:29:12;7.03;;;4.35;;
48317;SDS011;34127;47.412;9.730;2023-11-19T09:31:39;9.23;;;4.60;;
48317;SDS011;34127;47.412;9.730;2023-11-19T09:34:05;7.30;;;4.07;;
48317;SDS011;34127;47.412;9.730;2023-11-19T09:36:31;7.15;;;4.63;;
48317;SDS011;34127;47.412;9.730;2023-11-19T09:38:57;7.70;;;4.25;;
48317;SDS011;34127;47.412;9.730;2023-11-19T09:41:25;5.97;;;3.92;;
48317;SDS011;34127;47.412;9.730;2023-11-19T09:43:53;8.65;;;4.07;;
48317;SDS011;34127;47.412;9.730;2023-11-19T09:46:19;6.47;;;3.92;;
48317;SDS011;34127;47.412;9.730;2023-11-19T09:48:45;6.03;;;3.90;;
48317;SDS011;34127;47.412;9.730;2023-11-19T09:51:13;6.25;;;4.20;;
48317;SDS011;34127;47.412;9.730;2023-11-19T09:53:40;6.85;;;4.50;;
48317;SDS011;34127;47.412;9.730;2023-11-19T09:56:06;7.53;;;5.05;;
48317;SDS011;34127;47.412;9.730;2023-11-19T09:58:36;7.15;;;4.63;;
48317;SDS011;34127;47.412;9.730;2023-11-19T10:01:03;7.40;;;4.75;;
48317;SDS011;34127;47.412;9.730;2023-11-19T10:03:32;7.55;;;4.20;;
48317;SDS011;34127;47.412;9.730;2023-11-19T10:06:00;7.22;;;4.63;;
48317;SDS011;34127;47.412;9.730;2023-11-19T10:08:26;7.25;;;4.60;;
48317;SDS011;34127;47.412;9.730;2023-11-19T10:10:53;6.63;;;4.00;;
48317;SDS011;34127;47.412;9.730;2023-11-19T10:13:19;7.57;;;5.05;;
48317;SDS011;34127;47.412;9.730;2023-11-19T10:15:45;7.70;;;4.90;;
48317;SDS011;34127;47.412;9.730;2023-11-19T10:18:11;11.65;;;5.88;;
48317;SDS011;34127;47.412;9.730;2023-11-19T10:20:40;10.50;;;6.97;;
48317;SDS011;34127;47.412;9.730;2023-11-19T10:23:07;7.25;;;4.53;;
48317;SDS011;34127;47.412;9.730;2023-11-19T10:25:33;5.38;;;3.92;;
48317;SDS011;34127;47.412;9.730;2023-11-19T10:28:00;6.05;;;4.28;;
48317;SDS011;34127;47.412;9.730;2023-11-19T10:30:26;7.45;;;4.28;;
48317;SDS011;34127;47.412;9.730;2023-11-19T10:33:06;6.93;;;4.15;;
48317;SDS011;34127;47.412;9.730;2023-11-19T10:35:33;5.80;;;3.63;;
48317;SDS011;34127;47.412;9.730;2023-11-19T10:38:00;6.38;;;3.70;;
48317;SDS011;34127;47.412;9.730;2023-11-19T10:41:00;5.93;;;3.90;;
48317;SDS011;34127;47.412;9.730;2023-11-19T10:43:22;4.40;;;3.15;;
48317;SDS011;34127;47.412;9.730;2023-11-19T10:45:48;5.38;;;3.10;;
48317;SDS011;34127;47.412;9.730;2023-11-19T10:48:14;6.30;;;3.80;;
48317;SDS011;34127;47.412;9.730;2023-11-19T10:50:41;7.13;;;4.15;;
48317;SDS011;34127;47.412;9.730;2023-11-19T10:53:08;7.80;;;4.68;;
48317;SDS011;34127;47.412;9.730;2023-11-19T10:55:38;8.00;;;4.82;;
48317;SDS011;34127;47.412;9.730;2023-11-19T10:58:07;9.02;;;5.65;;
48317;SDS011;34127;47.412;9.730;2023-11-19T11:00:47;9.90;;;5.28;;
48317;SDS011;34127;47.412;9.730;2023-11-19T11:03:20;8.52;;;5.00;;
48317;SDS011;34127;47.412;9.730;2023-11-19T11:05:47;8.32;;;5.30;;
48317;SDS011;34127;47.412;9.730;2023-11-19T11:08:14;9.23;;;5.50;;
48317;SDS011;34127;47.412;9.730;2023-11-19T11:10:43;8.50;;;5.32;;
48317;SDS011;34127;47.412;9.730;2023-11-19T11:13:09;9.63;;;5.00;;
48317;SDS011;34127;47.412;9.730;2023-11-19T11:15:35;6.75;;;4.78;;
48317;SDS011;34127;47.412;9.730;2023-11-19T11:18:02;6.25;;;4.15;;
48317;SDS011;34127;47.412;9.730;2023-11-19T11:20:29;7.70;;;5.07;;
48317;SDS011;34127;47.412;9.730;2023-11-19T11:25:37;7.45;;;4.85;;
48317;SDS011;34127;47.412;9.730;2023-11-19T11:30:47;6.22;;;4.35;;
48317;SDS011;34127;47.412;9.730;2023-11-19T11:38:14;8.35;;;5.47;;
48317;SDS011;34127;47.412;9.730;2023-11-19T11:40:40;7.93;;;4.72;;
48317;SDS011;34127;47.412;9.730;2023-11-19T11:49:01;8.82;;;5.30;;
48317;SDS011;34127;47.412;9.730;2023-11-19T11:54:14;8.88;;;4.68;;
48317;SDS011;34127;47.412;9.730;2023-11-19T11:57:07;8.05;;;5.00;;
48317;SDS011;34127;47.412;9.730;2023-11-19T12:02:04;6.65;;;4.13;;
48317;SDS011;34127;47.412;9.730;2023-11-19T12:04:30;5.93;;;3.53;;
48317;SDS011;34127;47.412;9.730;2023-11-19T12:09:31;5.28;;;3.25;;
48317;SDS011;34127;47.412;9.730;2023-11-19T12:12:07;4.65;;;2.92;;
48317;SDS011;34127;47.412;9.730;2023-11-19T12:20:01;5.30;;;3.40;;
48317;SDS011;34127;47.412;9.730;2023-11-19T12:22:27;5.47;;;3.13;;
48317;SDS011;34127;47.412;9.730;2023-11-19T12:24:54;4.93;;;2.90;;
48317;SDS011;34127;47.412;9.730;2023-11-19T12:27:20;5.05;;;2.40;;
48317;SDS011;34127;47.412;9.730;2023-11-19T12:29:49;4.40;;;2.45;;
48317;SDS011;34127;47.412;9.730;2023-11-19T12:32:15;3.78;;;2.20;;
48317;SDS011;34127;47.412;9.730;2023-11-19T12:34:42;5.82;;;2.20;;
48317;SDS011;34127;47.412;9.730;2023-11-19T12:37:09;4.53;;;2.17;;
48317;SDS011;34127;47.412;9.730;2023-11-19T12:39:35;4.22;;;2.38;;
48317;SDS011;34127;47.412;9.730;2023-11-19T12:42:01;3.97;;;2.20;;
48317;SDS011;34127;47.412;9.730;2023-11-19T12:44:27;4.03;;;2.42;;
48317;SDS011;34127;47.412;9.730;2023-11-19T12:49:26;3.95;;;2.22;;
48317;SDS011;34127;47.412;9.730;2023-11-19T12:51:52;5.28;;;2.50;;
48317;SDS011;34127;47.412;9.730;2023-11-19T12:54:18;4.55;;;2.70;;
48317;SDS011;34127;47.412;9.730;2023-11-19T12:56:54;4.50;;;2.60;;
48317;SDS011;34127;47.412;9.730;2023-11-19T12:59:20;4.45;;;2.33;;
48317;SDS011;34127;47.412;9.730;2023-11-19T13:01:56;6.85;;;2.85;;
48317;SDS011;34127;47.412;9.730;2023-11-19T13:04:22;5.55;;;3.20;;
48317;SDS011;34127;47.412;9.730;2023-11-19T13:06:51;6.78;;;3.10;;
48317;SDS011;34127;47.412;9.730;2023-11-19T13:09:21;4.07;;;2.67;;
48317;SDS011;34127;47.412;9.730;2023-11-19T13:11:48;6.97;;;3.60;;
48317;SDS011;34127;47.412;9.730;2023-11-19T13:14:14;6.93;;;3.97;;
48317;SDS011;34127;47.412;9.730;2023-11-19T13:16:40;5.57;;;3.63;;
48317;SDS011;34127;47.412;9.730;2023-11-19T13:19:07;8.00;;;4.53;;
48317;SDS011;34127;47.412;9.730;2023-11-19T13:21:36;6.30;;;3.80;;
48317;SDS011;34127;47.412;9.730;2023-11-19T13:24:04;9.98;;;5.30;;
48317;SDS011;34127;47.412;9.730;2023-11-19T13:26:30;9.27;;;5.03;;
48317;SDS011;34127;47.412;9.730;2023-11-19T13:28:57;11.95;;;6.07;;
48317;SDS011;34127;47.412;9.730;2023-11-19T13:31:23;20.80;;;9.38;;
48317;SDS011;34127;47.412;9.730;2023-11-19T13:33:49;20.73;;;12.50;;
48317;SDS011;34127;47.412;9.730;2023-11-19T13:36:15;17.70;;;11.70;;
48317;SDS011;34127;47.412;9.730;2023-11-19T13:38:41;12.05;;;7.78;;
48317;SDS011;34127;47.412;9.730;2023-11-19T13:41:09;10.60;;;6.38;;
48317;SDS011;34127;47.412;9.730;2023-11-19T13:43:36;12.30;;;6.93;;
48317;SDS011;34127;47.412;9.730;2023-11-19T13:46:02;8.52;;;5.72;;
48317;SDS011;34127;47.412;9.730;2023-11-19T13:48:29;9.18;;;5.65;;
48317;SDS011;34127;47.412;9.730;2023-11-19T13:50:55;9.38;;;5.97;;
48317;SDS011;34127;47.412;9.730;2023-11-19T13:53:21;8.15;;;5.65;;
48317;SDS011;34127;47.412;9.730;2023-11-19T13:55:51;9.55;;;6.18;;
48317;SDS011;34127;47.412;9.730;2023-11-19T13:58:18;8.63;;;5.85;;
48317;SDS011;34127;47.412;9.730;2023-11-19T14:00:44;10.25;;;6.15;;
48317;SDS011;34127;47.412;9.730;2023-11-19T14:03:10;10.27;;;5.55;;
48317;SDS011;34127;47.412;9.730;2023-11-19T14:05:37;7.85;;;5.28;;
48317;SDS011;34127;47.412;9.730;2023-11-19T14:08:03;7.88;;;4.40;;
48317;SDS011;34127;47.412;9.730;2023-11-19T14:10:36;7.75;;;4.80;;
48317;SDS011;34127;47.412;9.730;2023-11-19T14:13:04;7.90;;;4.22;;
48317;SDS011;34127;47.412;9.730;2023-11-19T14:15:30;5.40;;;3.38;;
48317;SDS011;34127;47.412;9.730;2023-11-19T14:17:56;5.65;;;3.40;;
48317;SDS011;34127;47.412;9.730;2023-11-19T14:20:23;6.85;;;4.10;;
48317;SDS011;34127;47.412;9.730;2023-11-19T14:22:49;7.55;;;4.60;;
48317;SDS011;34127;47.412;9.730;2023-11-19T14:25:16;6.95;;;3.95;;
48317;SDS011;34127;47.412;9.730;2023-11-19T14:27:43;6.20;;;3.92;;
48317;SDS011;34127;47.412;9.730;2023-11-19T14:30:11;5.65;;;3.45;;
48317;SDS011;34127;47.412;9.730;2023-11-19T14:32:41;7.20;;;4.43;;
48317;SDS011;34127;47.412;9.730;2023-11-19T14:35:09;5.88;;;3.60;;
48317;SDS011;34127;47.412;9.730;2023-11-19T14:37:35;5.53;;;3.63;;
48317;SDS011;34127;47.412;9.730;2023-11-19T14:40:02;7.97;;;4.60;;
48317;SDS011;34127;47.412;9.730;2023-11-19T14:42:33;6.68;;;3.80;;
48317;SDS011;34127;47.412;9.730;2023-11-19T14:45:00;6.07;;;4.07;;
48317;SDS011;34127;47.412;9.730;2023-11-19T14:47:26;6.93;;;4.78;;
48317;SDS011;34127;47.412;9.730;2023-11-19T14:49:52;8.15;;;5.10;;
48317;SDS011;34127;47.412;9.730;2023-11-19T14:52:18;7.68;;;4.45;;
48317;SDS011;34127;47.412;9.730;2023-11-19T14:54:44;7.40;;;4.70;;
48317;SDS011;34127;47.412;9.730;2023-11-19T14:57:10;6.97;;;5.35;;
48317;SDS011;34127;47.412;9.730;2023-11-19T14:59:38;7.10;;;4.75;;
48317;SDS011;34127;47.412;9.730;2023-11-19T15:02:04;7.63;;;5.57;;
48317;SDS011;34127;47.412;9.730;2023-11-19T15:04:30;8.68;;;5.90;;
48317;SDS011;34127;47.412;9.730;2023-11-19T15:06:57;11.23;;;7.05;;
48317;SDS011;34127;47.412;9.730;2023-11-19T15:09:23;12.00;;;7.45;;
48317;SDS011;34127;47.412;9.730;2023-11-19T15:11:50;12.48;;;7.53;;
48317;SDS011;34127;47.412;9.730;2023-11-19T15:14:16;10.30;;;7.80;;
48317;SDS011;34127;47.412;9.730;2023-11-19T15:16:44;11.07;;;7.03;;